Time;durP1;ratioP1;P1;durP2;ratioP2;P2;SDS_P1;SDS_P2;PMS_P1;PMS_P2;Temp;Humidity;BMP_temperature;BMP_pressure;BME280_temperature;BME280_humidity;BME280_pressure;Samples;Min_cycle;Max_cycle;Signal;HPM_P1;HPM_P2
2022/06/21 00:01:34;;;;;;;;;6.00;6.00;;;;;20.55;51.74;100954.19;5101125;27;45710;-73
2022/06/21 00:04:01;;;;;;;;;5.25;5.25;;;;;20.54;51.91;100949.72;5099905;27;45440;-73
2022/06/21 00:06:27;;;;;;;;;9.25;7.75;;;;;20.56;51.84;100944.19;5093513;27;46852;-74
2022/06/21 00:08:53;;;;;;;;;7.00;7.00;;;;;20.36;52.17;100913.97;5097935;27;45408;-74
2022/06/21 00:11:30;;;;;;;;;7.75;7.00;;;;;20.47;52.23;100940.28;5100268;27;45308;-74
2022/06/21 00:13:56;;;;;;;;;7.00;7.00;;;;;20.48;52.01;100935.72;5088304;27;45375;-74
2022/06/21 00:16:23;;;;;;;;;3.25;2.75;;;;;20.49;51.82;100922.06;5100859;27;46057;-74
2022/06/21 00:18:49;;;;;;;;;5.00;5.00;;;;;20.44;52.19;100917.97;5100243;27;45243;-74
2022/06/21 00:21:25;;;;;;;;;8.00;8.00;;;;;20.43;52.49;100916.22;5097644;27;45548;-74
2022/06/21 00:23:52;;;;;;;;;8.00;8.00;;;;;20.40;52.65;100921.84;5099716;27;45551;-74
2022/06/21 00:26:20;;;;;;;;;10.50;8.00;;;;;20.39;52.29;100915.56;5085376;27;47325;-74
2022/06/21 00:28:45;;;;;;;;;7.00;7.00;;;;;20.42;52.54;100919.91;5099046;27;45611;-74
2022/06/21 00:31:20;;;;;;;;;9.25;8.00;;;;;20.43;52.42;100917.09;5100610;27;45311;-74
2022/06/21 00:33:46;;;;;;;;;6.00;5.00;;;;;20.39;52.07;100920.97;5100827;27;45581;-74
2022/06/21 00:36:28;;;;;;;;;8.25;7.50;;;;;20.40;52.57;100913.72;5100662;27;45259;-74
2022/06/21 00:38:55;;;;;;;;;9.00;9.00;;;;;20.38;52.04;100923.81;5099594;27;45683;-74
2022/06/21 00:41:34;;;;;;;;;9.25;9.00;;;;;20.36;52.21;100924.78;5100597;27;45459;-73
2022/06/21 00:44:02;;;;;;;;;10.50;9.00;;;;;20.33;52.46;100922.31;5100604;27;45341;-74
2022/06/21 00:46:56;;;;;;;;;8.75;8.25;;;;;20.26;52.11;100925.53;5100593;27;48437;-74
2022/06/21 00:49:30;;;;;;;;;10.25;10.00;;;;;20.21;52.73;100909.59;5090663;27;45495;-74
2022/06/21 00:52:07;;;;;;;;;10.00;10.00;;;;;20.14;52.93;100914.56;5098426;27;45576;-74
2022/06/21 00:54:41;;;;;;;;;10.75;9.25;;;;;20.18;52.74;100917.97;5100491;27;45401;-74
2022/06/21 00:57:14;;;;;;;;;10.00;10.00;;;;;20.21;52.70;100939.41;5100120;27;46209;-73
2022/06/21 00:59:40;;;;;;;;;9.00;7.50;;;;;20.22;52.89;100924.03;5099444;27;45383;-74
2022/06/21 01:02:14;;;;;;;;;11.25;11.25;;;;;20.28;52.71;100940.72;5100394;27;45427;-74
2022/06/21 01:04:45;;;;;;;;;9.25;9.25;;;;;20.23;52.75;100926.63;5105476;27;45365;-74
2022/06/21 01:07:12;;;;;;;;;12.00;10.00;;;;;20.18;52.57;100928.81;5100108;27;46055;-74
2022/06/21 01:09:43;;;;;;;;;11.25;10.50;;;;;20.15;52.62;100931.72;5098530;27;45327;-74
2022/06/21 01:12:15;;;;;;;;;9.00;9.00;;;;;20.13;52.78;100939.97;5100142;27;45277;-74
2022/06/21 01:14:49;;;;;;;;;9.75;9.75;;;;;20.02;52.94;100923.56;5099849;27;45523;-74
2022/06/21 01:17:15;;;;;;;;;12.25;10.75;;;;;20.07;53.21;100929.53;5087527;27;46083;-74
2022/06/21 01:20:02;;;;;;;;;11.25;10.75;;;;;20.03;53.25;100924.44;5099143;27;45405;-74
2022/06/21 01:22:47;;;;;;;;;12.25;12.25;;;;;20.09;52.99;100938.41;5098562;27;45444;-74
2022/06/21 01:25:21;;;;;;;;;13.00;10.25;;;;;19.97;52.77;100928.44;5086805;27;45306;-73
2022/06/21 01:27:48;;;;;;;;;11.25;10.50;;;;;20.02;52.94;100939.81;5099626;27;46269;-74
2022/06/21 01:30:13;;;;;;;;;12.50;11.00;;;;;20.01;53.18;100926.38;5099053;27;45576;-74
2022/06/21 01:32:38;;;;;;;;;10.25;10.25;;;;;20.06;52.84;100932.34;5099801;27;45471;-74
2022/06/21 01:35:25;;;;;;;;;10.00;9.50;;;;;19.95;52.77;100924.97;5100183;27;45498;-74
2022/06/21 01:37:50;;;;;;;;;8.25;8.25;;;;;19.99;53.19;100946.31;5099803;27;45292;-74
2022/06/21 01:40:26;;;;;;;;;12.50;11.00;;;;;19.87;52.88;100933.63;5097712;27;45718;-74
2022/06/21 01:42:57;;;;;;;;;10.50;10.50;;;;;19.96;52.89;100957.38;5099802;27;45140;-73
2022/06/21 01:45:30;;;;;;;;;11.25;11.25;;;;;19.92;52.91;100957.69;5099932;27;45258;-74
2022/06/21 01:48:00;;;;;;;;;12.25;11.25;;;;;19.92;52.99;100960.41;5099798;27;46192;-74
2022/06/21 01:50:26;;;;;;;;;11.00;9.00;;;;;19.95;53.22;100965.63;5097764;27;45567;-74
2022/06/21 01:52:55;;;;;;;;;7.00;7.00;;;;;20.01;53.12;100992.28;5098399;27;45229;-74
2022/06/21 01:55:42;;;;;;;;;11.50;11.00;;;;;20.01;53.04;100999.53;5099696;27;45263;-74
2022/06/21 01:58:15;;;;;;;;;10.25;10.25;;;;;20.09;53.22;101022.44;5099828;27;46395;-74
2022/06/21 02:00:46;;;;;;;;;10.25;10.25;;;;;20.08;52.84;101031.53;5097821;27;45437;-74
2022/06/21 02:03:17;;;;;;;;;12.50;11.75;;;;;20.07;52.79;101031.66;5102249;27;45275;-74
2022/06/21 02:05:50;;;;;;;;;7.25;7.00;;;;;20.09;53.08;101024.28;5098904;27;45297;-74
2022/06/21 02:08:20;;;;;;;;;10.25;10.25;;;;;20.14;53.04;101022.97;5103106;27;45643;-74
2022/06/21 02:11:04;;;;;;;;;16.75;13.00;;;;;20.15;53.05;101022.03;5100965;27;45878;-74
2022/06/21 02:13:36;;;;;;;;;11.00;11.00;;;;;20.18;53.32;101018.25;5102877;27;45276;-74
2022/06/21 02:16:04;;;;;;;;;14.50;12.25;;;;;20.20;52.97;101019.00;5102971;27;45361;-74
2022/06/21 02:18:33;;;;;;;;;12.00;10.75;;;;;20.18;52.61;101010.13;5101742;27;46423;-74
2022/06/21 02:21:05;;;;;;;;;13.25;12.25;;;;;20.13;52.80;101001.41;5103039;27;45234;-74
2022/06/21 02:23:30;;;;;;;;;10.75;10.75;;;;;20.09;52.54;100989.03;5100508;27;45469;-74
2022/06/21 02:25:57;;;;;;;;;12.00;12.00;;;;;19.98;52.90;100968.97;5101344;27;45670;-74
2022/06/21 02:28:23;;;;;;;;;10.75;10.75;;;;;19.88;52.91;100951.63;5101930;27;45390;-74
2022/06/21 02:30:52;;;;;;;;;14.00;11.25;;;;;19.88;53.27;100957.03;5101975;27;45375;-73
2022/06/21 02:33:24;;;;;;;;;14.25;13.00;;;;;19.84;53.30;100941.94;5089413;27;45387;-74
2022/06/21 02:35:59;;;;;;;;;9.00;9.00;;;;;19.82;53.49;100943.91;5102567;27;45699;-74
2022/06/21 02:39:02;;;;;;;;;11.00;11.00;;;;;19.84;53.90;100941.94;5097829;27;46599;-75
2022/06/21 02:41:43;;;;;;;;;10.00;9.50;;;;;19.84;53.61;100936.53;5066768;28;46046;-74
2022/06/21 02:44:16;;;;;;;;;11.00;11.00;;;;;19.82;53.99;100926.78;5100491;27;45300;-74
2022/06/21 02:46:46;;;;;;;;;14.00;11.75;;;;;19.85;53.82;100935.56;5102474;27;45342;-74
2022/06/21 02:49:19;;;;;;;;;13.25;9.75;;;;;19.78;53.97;100921.59;5100749;27;45338;-74
2022/06/21 02:51:54;;;;;;;;;11.25;11.25;;;;;19.76;53.89;100923.53;5101009;27;45233;-74
2022/06/21 02:54:33;;;;;;;;;11.00;11.00;;;;;19.75;54.40;100927.19;5100797;27;45372;-74
2022/06/21 02:57:10;;;;;;;;;15.75;10.50;;;;;19.78;54.05;100928.84;5102220;27;45320;-74
2022/06/21 02:59:38;;;;;;;;;12.50;10.25;;;;;19.74;53.97;100924.56;5101255;27;45368;-74
2022/06/21 03:02:13;;;;;;;;;15.50;14.25;;;;;19.75;54.61;100927.19;5102148;27;45534;-74
2022/06/21 03:04:43;;;;;;;;;11.75;9.75;;;;;19.72;54.69;100915.69;5090012;27;45481;-74
2022/06/21 03:07:16;;;;;;;;;11.75;11.75;;;;;19.70;54.73;100914.94;5100110;27;45452;-74
2022/06/21 03:09:42;;;;;;;;;13.50;12.50;;;;;19.69;55.03;100910.47;5099958;27;46119;-74
2022/06/21 03:12:10;;;;;;;;;12.50;11.25;;;;;19.59;54.83;100893.97;5098780;27;45611;-74
2022/06/21 03:14:36;;;;;;;;;12.00;12.00;;;;;19.55;55.09;100895.16;5101318;27;45334;-74
2022/06/21 03:17:04;;;;;;;;;12.25;11.75;;;;;19.51;55.69;100888.22;5101837;27;45384;-74
2022/06/21 03:19:34;;;;;;;;;11.25;11.00;;;;;19.50;55.36;100876.53;5100894;27;46294;-74
2022/06/21 03:22:02;;;;;;;;;11.75;10.00;;;;;19.47;55.98;100875.88;5101626;27;45392;-74
2022/06/21 03:24:29;;;;;;;;;9.75;9.25;;;;;19.43;55.78;100864.38;5101665;27;45396;-74
2022/06/21 03:27:03;;;;;;;;;13.00;12.00;;;;;19.41;55.66;100863.59;5101871;27;45300;-74
2022/06/21 03:29:29;;;;;;;;;12.25;12.25;;;;;19.38;55.96;100850.28;5100564;27;46604;-74
2022/06/21 03:31:57;;;;;;;;;13.00;12.00;;;;;19.35;55.60;100836.97;5100941;27;45301;-74
2022/06/21 03:34:24;;;;;;;;;13.50;13.50;;;;;19.30;55.50;100833.72;5100458;27;45420;-74
2022/06/21 03:36:50;;;;;;;;;14.75;12.25;;;;;19.23;55.85;100817.00;5100691;27;45353;-74
2022/06/21 03:39:20;;;;;;;;;12.25;12.25;;;;;19.20;56.04;100812.66;5095158;27;45578;-74
2022/06/21 03:41:48;;;;;;;;;14.25;12.50;;;;;19.19;56.19;100800.09;5100303;27;45464;-75
2022/06/21 03:44:14;;;;;;;;;12.50;12.50;;;;;19.18;55.67;100803.78;5101706;27;45229;-74
2022/06/21 03:46:55;;;;;;;;;17.00;14.00;;;;;19.09;55.86;100790.88;5101602;27;45435;-74
2022/06/21 03:49:35;;;;;;;;;13.25;12.00;;;;;19.04;56.29;100785.78;5100186;27;46232;-74
2022/06/21 03:52:07;;;;;;;;;12.00;12.00;;;;;18.93;56.24;100782.03;5101201;27;45547;-75
2022/06/21 03:54:39;;;;;;;;;12.50;12.50;;;;;18.79;56.92;100754.03;5101631;27;45342;-74
2022/06/21 03:57:15;;;;;;;;;13.75;12.25;;;;;18.86;57.38;100771.66;5101270;27;45179;-74
2022/06/21 03:59:47;;;;;;;;;13.00;12.00;;;;;18.80;57.02;100757.63;5099697;27;45502;-74
2022/06/21 04:02:29;;;;;;;;;13.25;12.50;;;;;18.74;57.24;100766.16;5101220;27;45492;-74
2022/06/21 04:05:06;;;;;;;;;12.00;12.00;;;;;18.65;57.77;100754.97;5088320;27;45263;-74
2022/06/21 04:07:52;;;;;;;;;15.25;14.00;;;;;18.70;57.72;100765.50;5087942;27;45348;-74
2022/06/21 04:10:33;;;;;;;;;12.50;12.50;;;;;18.69;58.29;100752.94;5100107;27;46061;-74
2022/06/21 04:13:19;;;;;;;;;14.25;14.00;;;;;18.68;58.51;100740.41;5101241;27;45319;-74
2022/06/21 04:15:44;;;;;;;;;16.50;14.00;;;;;18.74;58.50;100742.66;5089904;27;45562;-74
2022/06/21 04:18:36;;;;;;;;;12.67;12.67;;;;;18.71;58.44;100745.59;5100840;27;45603;-74
2022/06/21 04:21:20;;;;;;;;;12.00;11.50;;;;;18.69;58.31;100736.72;5095957;27;45214;-74
2022/06/21 04:23:59;;;;;;;;;14.00;13.00;;;;;18.57;58.14;100715.91;5096800;27;45430;-74
2022/06/21 04:26:30;;;;;;;;;16.75;16.00;;;;;18.58;58.70;100721.22;5099497;27;45448;-75
2022/06/21 04:29:13;;;;;;;;;12.50;11.75;;;;;18.54;59.61;100725.06;5099103;27;45507;-75
2022/06/21 04:31:44;;;;;;;;;15.25;15.25;;;;;18.48;59.70;100706.56;5087273;27;45287;-74
2022/06/21 04:34:47;;;;;;;;;14.75;14.25;;;;;18.50;59.22;100704.63;5100610;27;45355;-74
2022/06/21 04:37:21;;;;;;;;;13.50;13.50;;;;;18.48;59.52;100712.84;5088276;27;45296;-74
2022/06/21 04:39:56;;;;;;;;;16.00;13.50;;;;;18.50;59.80;100708.19;5092398;27;45470;-74
2022/06/21 04:42:29;;;;;;;;;17.50;14.75;;;;;18.52;59.81;100699.97;5100193;27;46224;-74
2022/06/21 04:45:15;;;;;;;;;12.25;12.25;;;;;18.43;59.60;100693.34;5100689;27;45475;-74
2022/06/21 04:47:48;;;;;;;;;15.50;14.25;;;;;18.40;59.83;100698.09;5100572;27;45153;-74
2022/06/21 04:50:31;;;;;;;;;10.75;10.75;;;;;18.40;59.96;100709.78;5098239;27;45259;-74
2022/06/21 04:53:18;;;;;;;;;14.25;14.00;;;;;18.41;60.35;100702.53;5100137;27;45426;-74
2022/06/21 04:55:59;;;;;;;;;11.00;11.00;;;;;18.46;60.60;100703.09;5100064;27;45497;-75
2022/06/21 04:58:25;;;;;;;;;14.75;14.75;;;;;18.44;60.57;100697.81;5100630;27;45452;-74
2022/06/21 05:00:52;;;;;;;;;15.25;14.25;;;;;18.42;59.72;100706.97;5097387;27;45451;-75
2022/06/21 05:03:42;;;;;;;;;12.50;11.75;;;;;18.43;60.26;100720.38;5099208;27;46431;-74
2022/06/21 05:06:13;;;;;;;;;14.50;13.00;;;;;18.39;60.29;100729.66;5090730;27;45511;-74
2022/06/21 05:08:40;;;;;;;;;15.50;15.00;;;;;18.39;60.55;100740.47;5100346;27;45255;-74
2022/06/21 05:11:05;;;;;;;;;17.75;17.00;;;;;18.38;60.36;100744.16;5098208;27;46118;-74
2022/06/21 05:13:33;;;;;;;;;9.75;9.00;;;;;18.37;60.25;100742.41;5099970;27;45330;-74
2022/06/21 05:16:03;;;;;;;;;16.50;15.50;;;;;18.38;60.36;100749.56;5100288;27;45310;-74
2022/06/21 05:18:38;;;;;;;;;13.50;12.25;;;;;18.33;59.80;100757.09;5100226;27;45447;-74
2022/06/21 05:21:30;;;;;;;;;16.00;15.75;;;;;18.27;60.54;100758.34;5097826;27;46005;-74
2022/06/21 05:23:55;;;;;;;;;16.50;16.50;;;;;18.27;60.25;100777.25;5089924;27;45412;-74
2022/06/21 05:26:33;;;;;;;;;14.00;14.00;;;;;18.29;60.46;100780.75;5095014;27;45423;-74
2022/06/21 05:29:22;;;;;;;;;13.00;13.00;;;;;18.26;60.27;100762.03;5090362;27;45402;-74
2022/06/21 05:31:53;;;;;;;;;14.75;14.75;;;;;17.98;60.11;100717.00;5089572;27;45316;-74
2022/06/21 05:34:31;;;;;;;;;12.50;11.50;;;;;18.14;60.95;100751.97;5098269;27;45337;-74
2022/06/21 05:37:04;;;;;;;;;16.50;14.50;;;;;18.11;60.24;100758.47;5100400;27;45271;-74
2022/06/21 05:39:38;;;;;;;;;15.50;15.00;;;;;18.07;60.83;100756.06;5098289;27;45464;-74
2022/06/21 05:42:06;;;;;;;;;14.25;13.25;;;;;18.06;61.15;100767.81;5102958;27;45350;-75
2022/06/21 05:44:34;;;;;;;;;15.25;15.25;;;;;18.07;60.97;100770.41;5102141;27;45386;-75
2022/06/21 05:47:31;;;;;;;;;16.50;15.75;;;;;18.06;60.77;100760.59;5099951;27;45499;-74
2022/06/21 05:50:00;;;;;;;;;13.75;13.50;;;;;18.03;60.83;100754.53;5102274;27;45534;-74
2022/06/21 05:52:32;;;;;;;;;13.25;13.25;;;;;18.01;60.94;100749.22;5102336;27;45559;-74
2022/06/21 05:55:21;;;;;;;;;14.25;14.25;;;;;17.95;61.74;100728.00;5100083;27;46542;-74
2022/06/21 05:58:09;;;;;;;;;16.75;14.50;;;;;18.02;61.36;100747.38;5102993;27;45630;-76
2022/06/21 06:00:39;;;;;;;;;15.25;14.25;;;;;18.05;61.62;100748.03;5090171;27;47165;-75
2022/06/21 06:03:19;;;;;;;;;17.00;17.00;;;;;18.12;61.92;100743.97;5102258;27;45302;-75
2022/06/21 06:05:46;;;;;;;;;16.25;16.25;;;;;18.23;61.88;100753.25;5099204;27;46784;-75
2022/06/21 06:08:23;;;;;;;;;16.00;14.75;;;;;18.21;60.42;100744.34;5093704;27;45381;-75
2022/06/21 06:10:49;;;;;;;;;16.75;14.75;;;;;18.17;60.49;100737.44;5098876;27;45526;-76
2022/06/21 06:13:20;;;;;;;;;16.50;14.75;;;;;18.24;60.82;100757.66;5102489;27;45491;-76
2022/06/21 06:15:52;;;;;;;;;15.00;15.00;;;;;18.15;60.95;100724.88;5102622;27;46717;-75
2022/06/21 06:18:31;;;;;;;;;18.75;15.75;;;;;18.31;60.58;100745.53;5102648;27;45353;-76
2022/06/21 06:21:03;;;;;;;;;15.50;13.50;;;;;18.22;60.23;100727.19;5098474;27;45316;-76
2022/06/21 06:23:33;;;;;;;;;16.75;16.00;;;;;18.37;61.03;100747.81;5099071;27;46095;-76
2022/06/21 06:26:21;;;;;;;;;17.75;15.25;;;;;18.42;60.97;100742.09;5098299;27;45441;-76
2022/06/21 06:29:03;;;;;;;;;17.50;16.00;;;;;18.32;60.74;100722.91;5101311;27;45416;-76
2022/06/21 06:31:39;;;;;;;;;15.25;14.50;;;;;18.48;60.39;100749.81;5101480;27;45416;-76
2022/06/21 06:34:19;;;;;;;;;19.50;16.00;;;;;18.39;60.80;100745.00;5102533;27;45347;-76
2022/06/21 06:36:49;;;;;;;;;15.00;15.00;;;;;18.48;60.31;100763.34;5099412;27;47396;-76
2022/06/21 06:39:24;;;;;;;;;17.50;16.75;;;;;18.46;60.52;100755.31;5095075;27;45551;-75
2022/06/21 06:42:03;;;;;;;;;17.00;16.00;;;;;18.36;60.77;100739.78;5101472;27;45379;-74
2022/06/21 06:44:38;;;;;;;;;17.25;15.50;;;;;18.45;60.45;100761.69;5096597;27;45412;-76
2022/06/21 06:47:11;;;;;;;;;16.00;16.00;;;;;18.45;60.40;100767.09;5088193;27;46549;-76
2022/06/21 06:49:58;;;;;;;;;14.50;13.25;;;;;18.56;61.17;100781.75;5098410;27;45442;-72
2022/06/21 06:52:31;;;;;;;;;16.25;15.25;;;;;18.55;61.46;100767.38;5084341;27;45470;-72
2022/06/21 06:55:15;;;;;;;;;20.00;18.50;;;;;18.68;61.06;100772.84;5097998;27;45779;-72
2022/06/21 06:57:46;;;;;;;;;19.75;17.50;;;;;18.71;61.01;100772.66;5097228;27;46422;-72
2022/06/21 07:00:50;;;;;;;;;14.00;14.00;;;;;18.72;61.19;100770.78;5099615;27;45799;-72
2022/06/21 07:03:24;;;;;;;;;16.00;15.00;;;;;18.70;61.16;100768.19;5041188;28;45513;-73
2022/06/21 07:06:04;;;;;;;;;15.50;15.50;;;;;18.81;61.33;100778.28;5085975;27;45394;-72
2022/06/21 07:08:43;;;;;;;;;15.50;15.50;;;;;18.86;61.33;100781.59;5100593;27;45412;-73
2022/06/21 07:11:41;;;;;;;;;15.50;14.75;;;;;18.98;61.15;100796.16;5100144;27;45844;-72
2022/06/21 07:14:19;;;;;;;;;19.75;19.75;;;;;19.02;60.19;100797.66;5088864;27;45457;-72
2022/06/21 07:16:51;;;;;;;;;17.50;14.50;;;;;19.06;60.54;100810.00;5097367;27;45466;-72
2022/06/21 07:19:17;;;;;;;;;18.50;16.50;;;;;19.06;60.86;100813.59;5096175;27;45612;-73
2022/06/21 07:21:42;;;;;;;;;17.25;16.75;;;;;19.04;60.37;100801.13;5097808;27;45508;-72
2022/06/21 07:24:16;;;;;;;;;15.00;15.00;;;;;18.92;60.53;100774.91;5098526;27;45400;-72
2022/06/21 07:26:51;;;;;;;;;15.25;15.00;;;;;19.12;60.42;100796.06;5100618;27;45403;-72
2022/06/21 07:29:28;;;;;;;;;14.75;13.75;;;;;19.17;60.55;100812.00;5099500;27;47289;-73
2022/06/21 07:32:01;;;;;;;;;10.25;7.25;;;;;19.10;61.11;100794.47;5092803;27;45243;-72
2022/06/21 07:34:45;;;;;;;;;14.00;12.50;;;;;19.31;60.99;100827.31;5089035;27;45514;-72
2022/06/21 07:37:18;;;;;;;;;18.00;17.25;;;;;19.37;61.02;100833.16;5098463;27;45414;-72
2022/06/21 07:40:09;;;;;;;;;22.00;21.00;;;;;19.40;60.38;100829.41;5089735;27;45464;-71
2022/06/21 07:43:01;;;;;;;;;18.00;18.00;;;;;19.40;60.92;100816.72;5100961;27;45681;-71
2022/06/21 07:45:34;;;;;;;;;15.00;15.00;;;;;19.42;60.33;100813.91;5097552;27;45420;-73
2022/06/21 07:48:12;;;;;;;;;24.75;22.00;;;;;19.59;60.74;100826.28;5098728;27;45894;-74
2022/06/21 07:50:45;;;;;;;;;18.75;17.75;;;;;19.61;60.73;100817.09;5093659;27;47367;-74
2022/06/21 07:53:43;;;;;;;;;20.50;20.50;;;;;19.76;60.75;100830.56;5097273;27;45389;-73
2022/06/21 07:56:39;;;;;;;;;17.75;17.75;;;;;19.80;60.50;100832.09;5065991;27;45453;-74
2022/06/21 07:59:22;;;;;;;;;18.00;17.00;;;;;19.83;60.31;100815.63;5090714;27;45397;-74
2022/06/21 08:07:35;;;;;;;;;16.75;16.00;;;;;19.96;60.96;100816.50;5091054;27;45868;-73
2022/06/21 08:10:48;;;;;;;;;14.75;13.00;;;;;20.03;60.65;100813.34;5099436;27;45392;-74
2022/06/21 08:13:14;;;;;;;;;19.75;17.25;;;;;20.11;60.31;100816.38;5078521;27;48069;-73
2022/06/21 08:15:49;;;;;;;;;14.50;14.25;;;;;20.05;60.49;100806.84;5099861;27;45484;-73
2022/06/21 08:18:26;;;;;;;;;16.75;16.75;;;;;20.04;60.16;100809.66;5100066;27;45452;-73
2022/06/21 08:21:00;;;;;;;;;13.25;13.25;;;;;20.11;60.01;100825.41;5101580;27;45653;-72
2022/06/21 08:23:34;;;;;;;;;18.00;17.25;;;;;20.05;60.62;100814.97;5100233;27;45460;-71
2022/06/21 08:26:32;;;;;;;;;16.00;15.00;;;;;20.20;61.31;100839.22;5099101;27;45144;-73
2022/06/21 08:29:01;;;;;;;;;18.50;18.50;;;;;20.24;61.04;100833.50;5098308;27;45387;-73
2022/06/21 08:31:32;;;;;;;;;18.00;13.25;;;;;20.29;60.66;100833.16;5094752;27;45840;-73
2022/06/21 08:34:12;;;;;;;;;15.25;13.75;;;;;20.35;60.25;100838.16;5097708;27;48194;-74
2022/06/21 08:36:55;;;;;;;;;15.75;15.75;;;;;20.42;60.33;100849.44;5098000;27;45236;-74
2022/06/21 08:39:24;;;;;;;;;17.75;16.50;;;;;20.49;60.41;100856.13;5088734;27;45465;-73
2022/06/21 08:42:27;;;;;;;;;15.00;15.00;;;;;20.54;60.88;100851.25;5094549;27;45521;-74
2022/06/21 08:45:42;;;;;;;;;18.00;15.25;;;;;20.54;61.00;100853.94;5087918;27;45903;-72
2022/06/21 08:48:39;;;;;;;;;21.25;18.25;;;;;20.55;60.96;100856.56;5087858;27;45437;-71
2022/06/21 08:51:24;;;;;;;;;21.75;19.75;;;;;20.56;61.13;100838.44;5093698;27;45867;-71
2022/06/21 08:54:05;;;;;;;;;21.25;19.25;;;;;20.64;61.24;100844.19;5091770;27;45345;-74
2022/06/21 08:57:10;;;;;;;;;19.75;18.50;;;;;20.68;61.25;100833.97;5097615;27;45370;-74
2022/06/21 08:59:47;;;;;;;;;20.25;18.25;;;;;20.70;60.97;100827.47;5088290;27;45618;-73
2022/06/21 09:02:19;;;;;;;;;19.75;18.50;;;;;20.77;61.58;100824.31;5098022;27;45427;-71
2022/06/21 09:05:01;;;;;;;;;15.25;15.25;;;;;20.83;61.01;100821.13;5097045;27;45928;-73
2022/06/21 09:07:32;;;;;;;;;26.50;23.50;;;;;20.87;60.49;100822.66;5088831;27;46620;-73
2022/06/21 09:10:06;;;;;;;;;24.00;23.50;;;;;20.86;61.16;100819.06;5089185;27;45745;-74
2022/06/21 09:12:47;;;;;;;;;19.25;17.50;;;;;20.88;60.79;100825.25;5091610;27;45538;-77
2022/06/21 09:15:27;;;;;;;;;17.50;16.00;;;;;20.93;60.70;100822.16;5085925;27;45476;-77
2022/06/21 09:17:57;;;;;;;;;19.50;16.50;;;;;20.95;61.17;100822.94;5097276;27;45558;-76
2022/06/21 09:20:25;;;;;;;;;20.50;20.50;;;;;21.04;60.43;100814.09;5101397;27;45455;-77
2022/06/21 09:23:07;;;;;;;;;20.00;17.75;;;;;21.08;60.44;100823.75;5103093;27;45346;-72
2022/06/21 09:26:01;;;;;;;;;16.50;16.50;;;;;21.09;60.77;100813.75;5099412;27;45457;-77
2022/06/21 09:28:50;;;;;;;;;21.50;20.25;;;;;21.12;60.57;100818.06;5096936;27;47031;-77
2022/06/21 09:31:36;;;;;;;;;18.50;18.25;;;;;21.17;60.72;100821.34;5097771;27;45242;-76
2022/06/21 09:34:31;;;;;;;;;18.00;18.00;;;;;21.20;60.81;100811.09;5085911;27;45219;-77
2022/06/21 09:37:33;;;;;;;;;21.25;21.25;;;;;21.28;60.79;100815.94;5099088;27;45374;-77
2022/06/21 09:40:36;;;;;;;;;19.75;19.75;;;;;21.29;60.65;100802.25;5086370;27;46829;-77
2022/06/21 09:43:29;;;;;;;;;17.00;17.00;;;;;21.38;60.28;100811.53;5092391;27;45918;-77
2022/06/21 09:46:08;;;;;;;;;18.25;17.00;;;;;21.44;60.94;100808.34;5098582;27;45294;-77
2022/06/21 09:48:48;;;;;;;;;20.25;18.75;;;;;21.50;60.22;100809.78;5091728;27;45466;-77
2022/06/21 09:51:22;;;;;;;;;24.50;22.25;;;;;21.56;60.19;100809.28;5102169;27;46095;-76
2022/06/21 09:54:21;;;;;;;;;22.00;21.00;;;;;21.56;59.68;100808.41;5097845;27;45516;-76
2022/06/21 09:57:15;;;;;;;;;16.50;16.25;;;;;21.54;60.74;100796.81;5099621;27;45601;-77
2022/06/21 09:59:57;;;;;;;;;21.25;21.25;;;;;21.60;60.57;100799.91;5089918;27;46864;-75
2022/06/21 10:02:35;;;;;;;;;20.25;19.75;;;;;21.65;59.95;100796.81;5089483;27;47002;-75
2022/06/21 10:05:17;;;;;;;;;21.50;19.75;;;;;21.67;60.37;100781.28;5095901;27;45563;-75
2022/06/21 10:08:07;;;;;;;;;21.75;21.75;;;;;21.71;60.48;100782.75;5100750;27;45282;-75
2022/06/21 10:10:55;;;;;;;;;23.50;20.50;;;;;21.84;60.27;100788.97;5101223;27;45526;-74
2022/06/21 10:14:01;;;;;;;;;18.75;18.00;;;;;21.90;59.69;100781.31;5101632;27;45482;-74
2022/06/21 10:16:45;;;;;;;;;18.25;18.25;;;;;21.91;59.76;100780.34;5100684;27;45399;-74
2022/06/21 10:19:36;;;;;;;;;21.00;20.50;;;;;21.93;59.65;100767.47;5097368;27;45337;-75
2022/06/21 10:22:20;;;;;;;;;15.75;15.75;;;;;21.98;59.48;100773.41;5100615;27;45502;-75
2022/06/21 10:25:08;;;;;;;;;19.00;18.75;;;;;22.01;60.51;100768.59;5094488;27;46171;-75
2022/06/21 10:28:12;;;;;;;;;18.75;18.00;;;;;22.10;60.05;100758.84;5094753;27;45601;-75
2022/06/21 10:30:52;;;;;;;;;20.50;18.25;;;;;22.16;59.95;100752.91;5101246;27;45305;-75
2022/06/21 10:33:42;;;;;;;;;14.25;13.75;;;;;22.19;59.97;100754.53;5100022;27;45588;-75
2022/06/21 10:36:26;;;;;;;;;16.75;15.50;;;;;22.24;58.94;100749.56;5101832;27;46598;-75
2022/06/21 10:39:06;;;;;;;;;14.50;14.50;;;;;22.27;59.33;100745.72;5097673;27;45507;-76
2022/06/21 10:41:31;;;;;;;;;17.25;14.75;;;;;22.31;59.24;100739.09;5092307;27;45387;-76
2022/06/21 10:44:02;;;;;;;;;17.00;17.00;;;;;22.35;58.55;100741.44;5096247;27;46452;-76
2022/06/21 10:46:37;;;;;;;;;16.75;16.75;;;;;22.41;59.32;100742.78;5094903;27;46285;-76
2022/06/21 10:49:30;;;;;;;;;17.50;17.00;;;;;22.48;59.04;100740.41;5087949;27;45854;-76
2022/06/21 10:52:37;;;;;;;;;18.75;18.50;;;;;22.53;59.10;100730.00;5100504;27;45761;-75
2022/06/21 10:55:17;;;;;;;;;23.00;22.00;;;;;22.60;58.47;100727.66;5077094;27;45965;-76
2022/06/21 10:58:16;;;;;;;;;17.50;16.75;;;;;22.64;58.57;100718.25;5096811;27;47048;-76
2022/06/21 11:04:19;;;;;;;;;14.50;13.25;;;;;22.78;59.10;100717.09;5099775;27;45406;-76
2022/06/21 11:07:03;;;;;;;;;16.25;15.50;;;;;22.88;58.43;100720.75;5096029;27;45421;-76
2022/06/21 11:09:38;;;;;;;;;22.25;19.50;;;;;22.93;58.04;100719.34;5098421;27;45967;-76
2022/06/21 11:15:52;;;;;;;;;19.25;19.25;;;;;23.05;57.04;100724.75;5097942;27;45315;-75
2022/06/21 11:18:44;;;;;;;;;21.00;19.00;;;;;23.08;57.65;100716.38;5100843;27;45815;-76
2022/06/21 11:21:35;;;;;;;;;17.50;17.50;;;;;23.17;58.03;100714.69;5101334;27;45826;-76
2022/06/21 11:24:44;;;;;;;;;19.75;19.25;;;;;23.26;57.59;100720.22;5098630;27;45340;-76
2022/06/21 11:27:22;;;;;;;;;17.25;15.50;;;;;23.34;57.02;100711.41;5106111;27;45452;-76
2022/06/21 11:29:59;;;;;;;;;17.00;15.50;;;;;23.41;56.92;100714.44;5094890;27;45459;-76
2022/06/21 11:32:52;;;;;;;;;18.50;17.25;;;;;23.48;56.70;100707.47;5091608;27;45453;-74
2022/06/21 11:35:35;;;;;;;;;14.75;13.75;;;;;23.50;55.64;100713.63;5089965;27;45899;-74
2022/06/21 11:38:32;;;;;;;;;22.00;18.75;;;;;23.54;56.04;100697.88;5088242;27;45504;-74
2022/06/21 11:42:04;;;;;;;;;16.50;16.50;;;;;23.57;56.48;100714.84;5091578;27;45756;-73
2022/06/21 11:44:22;;;;;;;;;20.25;20.25;;;;;23.60;55.80;100700.94;5092551;27;45705;-73
2022/06/21 11:47:01;;;;;;;;;20.00;18.75;;;;;23.62;55.71;100696.22;5093135;27;45728;-74
2022/06/21 11:49:51;;;;;;;;;20.00;18.00;;;;;23.71;55.35;100702.72;5097256;27;45501;-75
2022/06/21 11:52:35;;;;;;;;;19.00;17.25;;;;;23.76;55.67;100703.16;5089786;27;45464;-75
2022/06/21 11:55:12;;;;;;;;;17.50;15.75;;;;;23.83;55.94;100706.25;5094470;27;46209;-75
2022/06/21 11:57:49;;;;;;;;;19.75;17.25;;;;;23.83;55.22;100698.91;5089802;27;45432;-74
2022/06/21 12:00:32;;;;;;;;;17.75;16.75;;;;;23.94;55.37;100699.81;5081946;27;46009;-68
2022/06/21 12:02:59;;;;;;;;;15.00;15.00;;;;;23.98;55.41;100693.97;5099376;27;45401;-67
2022/06/21 12:05:36;;;;;;;;;14.50;14.25;;;;;24.03;55.24;100693.56;5085044;27;45604;-67
2022/06/21 12:08:23;;;;;;;;;19.50;16.50;;;;;24.10;55.32;100694.72;5096711;27;45434;-67
2022/06/21 12:10:57;;;;;;;;;16.25;15.00;;;;;24.14;55.28;100689.84;5088883;27;45369;-67
2022/06/21 12:13:48;;;;;;;;;16.25;14.25;;;;;24.19;55.31;100690.28;5100472;27;45482;-67